Time;durP1;ratioP1;P1;durP2;ratioP2;P2;SDS_P1;SDS_P2;PMS_P1;PMS_P2;Temp;Humidity;BMP_temperature;BMP_pressure;BME280_temperature;BME280_humidity;BME280_pressure;Samples;Min_cycle;Max_cycle;Signal;HPM_P1;HPM_P2
2021/08/25 00:02:04;;;;;;;;;;;;;;;22.52;28.12;97794.09;4933732;29;898;-81
2021/08/25 00:04:30;;;;;;;;;;;;;;;22.61;28.28;97791.38;4949258;29;1266;-81
2021/08/25 00:06:55;;;;;;;;;;;;;;;22.56;27.88;97789.88;4949789;29;1899;-79
2021/08/25 00:09:20;;;;;;;;;;;;;;;20.62;28.06;97496.38;4948382;29;950;-81
2021/08/25 00:11:46;;;;;;;;;;;;;;;22.55;28.02;97793.19;4933239;29;981;-81
2021/08/25 00:14:11;;;;;;;;;;;;;;;22.48;28.22;97787.75;4952768;29;1123;-81
2021/08/25 00:16:37;;;;;;;;;;;;;;;22.47;28.28;97786.16;4964786;29;687;-81
2021/08/25 00:19:02;;;;;;;;;;;;;;;22.66;28.27;97790.78;4964402;29;735;-81
2021/08/25 00:21:28;;;;;;;;;;;;;;;22.61;27.99;97786.47;4949948;29;852;-82
2021/08/25 00:23:53;;;;;;;;;;;;;;;22.50;28.38;97790.94;4964421;29;1078;-82
2021/08/25 00:26:18;;;;;;;;;;;;;;;22.53;28.07;97784.34;4948894;29;1970;-81
2021/08/25 00:28:44;;;;;;;;;;;;;;;22.40;28.29;97777.91;4949523;29;956;-82
2021/08/25 00:31:09;;;;;;;;;;;;;;;22.31;28.32;97773.72;4965184;29;730;-79
2021/08/25 00:33:35;;;;;;;;;;;;;;;22.33;28.51;97781.78;4963517;28;1504;-80
2021/08/25 00:36:00;;;;;;;;;;;;;;;22.50;27.99;97776.75;4950013;29;1363;-81
2021/08/25 00:38:25;;;;;;;;;;;;;;;22.49;28.17;97772.34;4964287;29;1012;-81
2021/08/25 00:40:51;;;;;;;;;;;;;;;22.49;28.12;97772.34;4965657;28;923;-80
2021/08/25 00:43:16;;;;;;;;;;;;;;;22.47;27.91;97777.66;4948990;29;1042;-80
2021/08/25 00:45:42;;;;;;;;;;;;;;;22.44;28.33;97775.75;4950062;29;1321;-81
2021/08/25 00:48:14;;;;;;;;;;;;;;;22.41;28.07;97770.97;4948939;29;1977;-81
2021/08/25 00:50:40;;;;;;;;;;;;;;;22.32;28.17;97768.84;4965614;29;1134;-82
2021/08/25 00:53:06;;;;;;;;;;;;;;;22.43;28.25;97768.47;4948409;29;967;-82
2021/08/25 00:55:35;;;;;;;;;;;;;;;22.55;28.20;97762.00;4949444;29;973;-82
2021/08/25 00:58:00;;;;;;;;;;;;;;;22.61;28.02;97755.28;4964882;29;667;-81
2021/08/25 01:00:26;;;;;;;;;;;;;;;22.53;27.81;97755.97;4948639;29;707;-81
2021/08/25 01:02:55;;;;;;;;;;;;;;;22.50;28.10;97756.91;4948759;29;870;-82
2021/08/25 01:05:21;;;;;;;;;;;;;;;22.35;28.13;97751.72;4964213;29;971;-81
2021/08/25 01:07:46;;;;;;;;;;;;;;;22.41;28.50;97746.25;4964560;29;1898;-81
2021/08/25 01:10:25;;;;;;;;;;;;;;;22.38;28.23;97754.88;4964557;29;792;-81
2021/08/25 01:12:51;;;;;;;;;;;;;;;22.41;28.24;97749.09;4948720;29;718;-81
2021/08/25 01:15:17;;;;;;;;;;;;;;;22.35;28.29;97751.72;4964039;29;1064;-81
2021/08/25 01:17:42;;;;;;;;;;;;;;;22.40;28.11;97752.41;4964636;28;930;-82
2021/08/25 01:20:12;;;;;;;;;;;;;;;22.40;28.18;97747.50;4946953;29;1005;-81
2021/08/25 01:22:37;;;;;;;;;;;;;;;22.30;28.58;97740.94;4963768;29;1360;-81
2021/08/25 01:25:03;;;;;;;;;;;;;;;22.51;28.23;97735.81;4947539;29;867;-81
2021/08/25 01:27:29;;;;;;;;;;;;;;;22.53;28.39;97744.63;4964317;28;1947;-82
2021/08/25 01:29:55;;;;;;;;;;;;;;;22.51;28.13;97747.94;4964772;29;627;-82
2021/08/25 01:32:20;;;;;;;;;;;;;;;22.38;28.33;97738.66;4964583;28;925;-82
2021/08/25 01:34:53;;;;;;;;;;;;;;;22.41;28.50;97742.63;4947940;29;971;-81
2021/08/25 01:37:19;;;;;;;;;;;;;;;22.28;28.62;97737.00;4964165;29;962;-82
2021/08/25 01:39:44;;;;;;;;;;;;;;;22.39;28.36;97739.47;4948028;29;1233;-82
2021/08/25 01:42:10;;;;;;;;;;;;;;;22.40;28.25;97738.22;4948624;29;759;-82
2021/08/25 01:44:36;;;;;;;;;;;;;;;22.48;28.31;97736.72;4963116;28;706;-80
2021/08/25 01:47:02;;;;;;;;;;;;;;;22.47;28.09;97740.81;4964459;29;1942;-81
2021/08/25 01:49:27;;;;;;;;;;;;;;;22.32;28.28;97735.59;4947982;29;1011;-81
2021/08/25 01:51:57;;;;;;;;;;;;;;;22.39;28.29;97739.47;4947703;29;973;-81
2021/08/25 01:54:23;;;;;;;;;;;;;;;22.33;28.08;97730.75;4947099;29;1162;-81
2021/08/25 01:56:48;;;;;;;;;;;;;;;22.38;28.02;97733.00;4964491;28;766;-82
2021/08/25 01:59:14;;;;;;;;;;;;;;;22.37;28.16;97737.06;4948295;29;644;-81
2021/08/25 02:01:39;;;;;;;;;;;;;;;22.62;27.57;97739.06;4963800;28;814;-82
2021/08/25 02:04:05;;;;;;;;;;;;;;;22.49;27.75;97739.09;4930817;29;862;-81
2021/08/25 02:06:30;;;;;;;;;;;;;;;22.54;27.91;97726.41;4948367;29;1973;-81
2021/08/25 02:08:56;;;;;;;;;;;;;;;22.44;28.00;97724.72;4946948;29;859;-81
2021/08/25 02:11:21;;;;;;;;;;;;;;;22.35;28.15;97729.03;4964278;28;842;-81
2021/08/25 02:13:46;;;;;;;;;;;;;;;22.19;28.22;97732.03;4932161;29;1192;-82
2021/08/25 02:16:12;;;;;;;;;;;;;;;22.26;28.23;97731.78;4948585;29;699;-82
2021/08/25 02:18:37;;;;;;;;;;;;;;;22.35;28.13;97729.03;4946938;29;879;-80
2021/08/25 02:21:03;;;;;;;;;;;;;;;22.39;28.23;97723.25;4963751;28;973;-82
2021/08/25 02:23:28;;;;;;;;;;;;;;;22.43;28.04;97723.13;4945985;29;911;-82
2021/08/25 02:25:54;;;;;;;;;;;;;;;22.42;27.93;97732.88;4963672;29;644;-82
2021/08/25 02:28:19;;;;;;;;;;;;;;;22.53;28.11;97733.28;4962625;28;1907;-81
2021/08/25 02:30:45;;;;;;;;;;;;;;;22.49;27.80;97724.94;4963341;29;782;-81
2021/08/25 02:33:10;;;;;;;;;;;;;;;22.35;28.12;97728.25;4962423;29;970;-81
2021/08/25 02:35:35;;;;;;;;;;;;;;;22.42;28.16;97725.16;4962888;28;834;-82
2021/08/25 02:38:01;;;;;;;;;;;;;;;22.55;27.83;97719.47;4947728;28;858;-82
2021/08/25 02:40:26;;;;;;;;;;;;;;;22.43;27.88;97723.13;4963677;29;687;-81
2021/08/25 02:42:52;;;;;;;;;;;;;;;22.36;28.27;97718.50;4947559;29;636;-82
2021/08/25 02:45:17;;;;;;;;;;;;;;;22.48;27.71;97709.16;4946008;29;1185;-81
2021/08/25 02:47:43;;;;;;;;;;;;;;;22.70;27.41;97714.88;4962315;29;1887;-81
2021/08/25 02:50:08;;;;;;;;;;;;;;;22.49;27.88;97715.63;4946566;29;1123;-82
2021/08/25 02:52:42;;;;;;;;;;;;;;;22.33;28.14;97714.53;4947933;29;647;-81
2021/08/25 02:55:08;;;;;;;;;;;;;;;22.36;27.77;97712.81;4962255;28;798;-82
2021/08/25 02:57:34;;;;;;;;;;;;;;;22.32;28.10;97717.81;4961917;28;639;-81
2021/08/25 02:59:59;;;;;;;;;;;;;;;22.33;27.87;97720.22;4961337;29;850;-81
2021/08/25 03:02:25;;;;;;;;;;;;;;;22.36;27.76;97724.16;4962431;28;942;-80
2021/08/25 03:04:50;;;;;;;;;;;;;;;22.21;28.11;97714.56;4946209;29;1003;-81
2021/08/25 03:07:16;;;;;;;;;;;;;;;22.12;28.27;97723.72;4947004;29;1907;-81
2021/08/25 03:09:41;;;;;;;;;;;;;;;22.18;27.96;97724.78;4946127;29;871;-82
2021/08/25 03:12:06;;;;;;;;;;;;;;;22.30;27.75;97726.78;4946604;29;875;-82
2021/08/25 03:14:32;;;;;;;;;;;;;;;22.33;28.03;97728.72;4962279;28;969;-81
2021/08/25 03:16:57;;;;;;;;;;;;;;;22.14;28.10;97718.44;4963017;29;936;-82
2021/08/25 03:19:23;;;;;;;;;;;;;;;22.42;28.05;97721.53;4962717;29;924;-81
2021/08/25 03:21:48;;;;;;;;;;;;;;;22.25;28.04;97730.19;4963460;28;905;-81
2021/08/25 03:24:14;;;;;;;;;;;;;;;22.38;27.97;97724.47;4960610;29;600;-80
2021/08/25 03:26:39;;;;;;;;;;;;;;;22.30;27.88;97726.78;4962523;29;1953;-82
2021/08/25 03:29:05;;;;;;;;;;;;;;;22.33;27.85;97722.25;4946007;29;950;-81
2021/08/25 03:31:31;;;;;;;;;;;;;;;22.31;27.95;97734.03;4961162;29;862;-80
2021/08/25 03:33:56;;;;;;;;;;;;;;;22.39;27.89;97728.13;4945099;29;871;-82
2021/08/25 03:36:21;;;;;;;;;;;;;;;22.41;27.83;97731.28;4947206;29;651;-82
2021/08/25 03:38:47;;;;;;;;;;;;;;;22.61;27.56;97735.44;4962873;28;972;-82
2021/08/25 03:41:13;;;;;;;;;;;;;;;22.39;27.79;97730.97;4962821;28;811;-82
2021/08/25 03:43:38;;;;;;;;;;;;;;;22.24;27.95;97722.94;4947458;29;620;-81
2021/08/25 03:46:04;;;;;;;;;;;;;;;22.32;28.06;97724.28;4962710;28;987;-82
2021/08/25 03:48:29;;;;;;;;;;;;;;;22.46;27.46;97734.34;4945923;29;1962;-81
2021/08/25 03:50:54;;;;;;;;;;;;;;;22.34;27.76;97733.13;4947386;29;859;-81
2021/08/25 03:53:20;;;;;;;;;;;;;;;22.24;27.91;97728.59;4961800;29;719;-82
2021/08/25 03:55:45;;;;;;;;;;;;;;;22.35;27.98;97734.72;4946970;29;763;-82
2021/08/25 03:58:11;;;;;;;;;;;;;;;22.42;27.80;97738.53;4945699;29;667;-82
2021/08/25 04:00:36;;;;;;;;;;;;;;;22.44;27.92;97736.06;4962868;29;880;-82
2021/08/25 04:03:02;;;;;;;;;;;;;;;22.43;27.77;97734.44;4962089;29;895;-82
2021/08/25 04:05:27;;;;;;;;;;;;;;;22.58;27.43;97729.88;4962837;29;888;-82
2021/08/25 04:07:53;;;;;;;;;;;;;;;22.36;27.98;97736.28;4947231;29;1891;-82
2021/08/25 04:10:18;;;;;;;;;;;;;;;22.28;27.68;97739.84;4951105;29;628;-82
2021/08/25 04:12:43;;;;;;;;;;;;;;;22.28;27.89;97734.97;4951482;29;675;-82
2021/08/25 04:15:09;;;;;;;;;;;;;;;22.21;28.00;97735.19;4950090;29;1019;-81
2021/08/25 04:17:35;;;;;;;;;;;;;;;22.38;27.90;97740.69;4950527;29;874;-82
2021/08/25 04:20:00;;;;;;;;;;;;;;;22.35;27.88;97734.72;4966574;29;946;-82
2021/08/25 04:22:26;;;;;;;;;;;;;;;22.32;27.97;97732.78;4950765;29;632;-82
2021/08/25 04:24:51;;;;;;;;;;;;;;;22.49;27.60;97726.97;4966358;29;644;-82
2021/08/25 04:27:17;;;;;;;;;;;;;;;22.20;28.06;97721.47;4966804;28;1990;-82
2021/08/25 04:29:43;;;;;;;;;;;;;;;22.32;27.97;97718.59;4966019;28;937;-82
2021/08/25 04:32:09;;;;;;;;;;;;;;;22.32;27.93;97734.81;4950916;29;835;-83
2021/08/25 04:34:34;;;;;;;;;;;;;;;22.28;27.95;97723.63;4966513;29;851;-82
2021/08/25 04:36:59;;;;;;;;;;;;;;;22.30;27.81;97729.63;4950196;29;1172;-82
2021/08/25 04:39:25;;;;;;;;;;;;;;;22.27;27.93;97730.50;4964637;28;877;-82
2021/08/25 04:41:50;;;;;;;;;;;;;;;22.26;28.12;97731.78;4951053;29;1484;-82
2021/08/25 04:44:16;;;;;;;;;;;;;;;22.23;28.22;97729.88;4965711;28;834;-83
2021/08/25 04:46:41;;;;;;;;;;;;;;;22.37;27.85;97731.41;4966214;28;1894;-82
2021/08/25 04:49:07;;;;;;;;;;;;;;;22.39;27.78;97728.13;4966747;28;914;-81
2021/08/25 04:51:32;;;;;;;;;;;;;;;22.53;27.69;97733.28;4966538;28;854;-81
2021/08/25 04:53:57;;;;;;;;;;;;;;;22.43;28.20;97735.25;4950003;29;1127;-81
2021/08/25 04:56:23;;;;;;;;;;;;;;;22.41;27.97;97740.59;4966457;29;751;-82
2021/08/25 04:58:48;;;;;;;;;;;;;;;22.49;27.77;97739.09;4965713;29;920;-83
2021/08/25 05:01:14;;;;;;;;;;;;;;;22.44;27.79;97741.72;4950485;29;835;-83
2021/08/25 05:03:39;;;;;;;;;;;;;;;22.45;27.84;97743.31;4965213;29;920;-82
2021/08/25 05:06:05;;;;;;;;;;;;;;;22.42;28.09;97744.22;4966277;29;1361;-83
2021/08/25 05:08:31;;;;;;;;;;;;;;;22.43;27.81;97745.78;4950080;29;1985;-82
2021/08/25 05:10:56;;;;;;;;;;;;;;;22.36;28.06;97750.47;4950519;29;1177;-82
2021/08/25 05:13:22;;;;;;;;;;;;;;;22.28;28.32;97757.63;4965100;28;1005;-82
2021/08/25 05:15:47;;;;;;;;;;;;;;;22.37;28.10;97759.75;4949947;29;937;-82
2021/08/25 05:18:12;;;;;;;;;;;;;;;22.27;28.48;97758.84;4949456;29;969;-82
2021/08/25 05:20:38;;;;;;;;;;;;;;;22.25;28.31;97764.19;4949988;29;643;-82
2021/08/25 05:23:03;;;;;;;;;;;;;;;22.38;28.32;97763.38;4933398;29;1217;-82
2021/08/25 05:25:29;;;;;;;;;;;;;;;22.49;27.93;97770.28;4934091;29;1191;-83
2021/08/25 05:27:54;;;;;;;;;;;;;;;22.53;28.06;97768.09;4933954;29;1976;-82
2021/08/25 05:30:20;;;;;;;;;;;;;;;22.51;27.99;97775.50;4933962;29;1137;-82
2021/08/25 05:32:51;;;;;;;;;;;;;;;22.45;27.97;97777.34;4946680;29;969;-83
2021/08/25 05:35:16;;;;;;;;;;;;;;;22.22;28.28;97773.59;4949311;29;960;-82
2021/08/25 05:37:42;;;;;;;;;;;;;;;22.38;28.26;97771.88;4933169;29;988;-82
2021/08/25 05:40:07;;;;;;;;;;;;;;;22.49;28.26;97773.13;4949417;29;664;-83
2021/08/25 05:42:33;;;;;;;;;;;;;;;22.56;27.86;97777.75;4934167;29;1130;-82
2021/08/25 05:44:58;;;;;;;;;;;;;;;22.36;28.35;97770.31;4948557;29;811;-82
2021/08/25 05:47:24;;;;;;;;;;;;;;;22.36;28.28;97764.63;4933530;29;1996;-82
2021/08/25 05:49:49;;;;;;;;;;;;;;;22.36;28.22;97770.31;4933179;29;1147;-83
2021/08/25 05:52:14;;;;;;;;;;;;;;;22.24;28.41;97771.13;4949287;29;993;-82
2021/08/25 05:54:40;;;;;;;;;;;;;;;22.34;28.47;97769.97;4948862;29;931;-81
2021/08/25 05:57:05;;;;;;;;;;;;;;;22.39;28.63;97776.31;4949198;29;727;-81
2021/08/25 05:59:31;;;;;;;;;;;;;;;22.38;28.35;97774.72;4948483;29;929;-81
2021/08/25 06:01:56;;;;;;;;;;;;;;;22.50;28.20;97785.25;4932744;29;873;-81
2021/08/25 06:04:22;;;;;;;;;;;;;;;22.59;28.16;97776.84;4949394;29;1095;-82
2021/08/25 06:06:47;;;;;;;;;;;;;;;22.43;28.57;97774.94;4948744;29;1906;-83
2021/08/25 06:09:13;;;;;;;;;;;;;;;22.36;28.63;97772.34;4948198;29;978;-81
2021/08/25 06:11:48;;;;;;;;;;;;;;;22.54;28.33;97769.72;4932821;29;866;-82
2021/08/25 06:14:13;;;;;;;;;;;;;;;22.40;28.32;97775.06;4952510;29;1144;-82
2021/08/25 06:16:39;;;;;;;;;;;;;;;22.44;28.63;97775.75;4948859;29;1256;-82
2021/08/25 06:19:05;;;;;;;;;;;;;;;22.46;28.76;97778.91;4948458;29;970;-83
2021/08/25 06:21:30;;;;;;;;;;;;;;;22.49;28.31;97775.19;4964689;29;783;-82
2021/08/25 06:23:56;;;;;;;;;;;;;;;22.47;28.45;97780.50;4948803;29;747;-83
2021/08/25 06:26:22;;;;;;;;;;;;;;;22.48;28.52;97788.53;4964484;29;699;-82
2021/08/25 06:28:47;;;;;;;;;;;;;;;22.55;28.36;97776.97;4964531;28;2030;-83
2021/08/25 06:31:12;;;;;;;;;;;;;;;22.51;28.59;97776.28;4964349;28;875;-83
2021/08/25 06:33:38;;;;;;;;;;;;;;;22.37;28.57;97773.94;4964051;29;852;-82
2021/08/25 06:36:04;;;;;;;;;;;;;;;22.40;28.51;97780.75;4964407;29;754;-82
2021/08/25 06:38:29;;;;;;;;;;;;;;;22.41;28.58;97777.44;4963343;28;1359;-82
2021/08/25 06:40:54;;;;;;;;;;;;;;;22.46;28.68;97784.59;4948883;29;938;-82
2021/08/25 06:43:20;;;;;;;;;;;;;;;22.39;28.91;97779.16;4948065;29;1233;-83
2021/08/25 06:45:45;;;;;;;;;;;;;;;22.46;28.59;97784.59;4948468;29;1280;-82
2021/08/25 06:48:11;;;;;;;;;;;;;;;22.44;28.71;97781.44;4947800;29;1907;-82
2021/08/25 06:50:36;;;;;;;;;;;;;;;22.46;28.69;97779.69;4963920;29;839;-81
2021/08/25 06:53:02;;;;;;;;;;;;;;;22.50;28.81;97780.38;4964102;28;834;-83
2021/08/25 06:55:27;;;;;;;;;;;;;;;22.42;28.67;97789.56;4964401;29;647;-82
2021/08/25 06:57:52;;;;;;;;;;;;;;;22.52;28.75;97777.09;4948240;29;647;-82
2021/08/25 07:00:18;;;;;;;;;;;;;;;22.49;28.65;97784.47;4947627;29;1067;-82
2021/08/25 07:02:44;;;;;;;;;;;;;;;22.56;28.52;97789.09;4947917;29;1196;-82
2021/08/25 07:05:15;;;;;;;;;;;;;;;22.50;28.81;97776.75;4963929;29;871;-82
2021/08/25 07:07:41;;;;;;;;;;;;;;;22.46;28.79;97790.25;4932311;29;1911;-82
2021/08/25 07:10:06;;;;;;;;;;;;;;;22.59;28.69;97780.47;4947934;29;669;-82
2021/08/25 07:12:32;;;;;;;;;;;;;;;22.51;28.65;97786.84;4964273;28;842;-82
2021/08/25 07:14:57;;;;;;;;;;;;;;;22.68;28.80;97779.75;4931961;29;1222;-82
2021/08/25 07:17:29;;;;;;;;;;;;;;;22.45;28.92;97783.00;4963190;29;954;-82
2021/08/25 07:19:54;;;;;;;;;;;;;;;22.53;28.77;97781.50;4964002;29;600;-82
2021/08/25 07:22:19;;;;;;;;;;;;;;;22.58;28.89;97786.59;4964058;29;718;-83
2021/08/25 07:24:45;;;;;;;;;;;;;;;22.62;28.74;97790.09;4948048;29;1187;-83
2021/08/25 07:27:10;;;;;;;;;;;;;;;22.76;28.68;97786.78;4948094;29;1977;-83
2021/08/25 07:29:39;;;;;;;;;;;;;;;22.53;28.79;97790.00;4963587;29;927;-83
2021/08/25 07:32:05;;;;;;;;;;;;;;;22.58;28.69;97780.91;4947742;29;1007;-83
2021/08/25 07:34:30;;;;;;;;;;;;;;;22.53;28.83;97785.13;4947263;29;945;-82
2021/08/25 07:36:55;;;;;;;;;;;;;;;22.35;29.70;97814.06;4962755;29;647;-78
2021/08/25 07:39:21;;;;;;;;;;;;;;;22.67;29.22;97778.19;4945982;29;640;-80
2021/08/25 07:41:47;;;;;;;;;;;;;;;22.84;29.36;97784.47;4941788;29;1466;-82
2021/08/25 07:44:12;;;;;;;;;;;;;;;22.69;29.57;97780.56;4945455;29;673;-82
2021/08/25 07:46:37;;;;;;;;;;;;;;;22.67;29.67;97780.22;4947274;29;1887;-82
2021/08/25 07:49:03;;;;;;;;;;;;;;;22.69;29.58;97778.53;4946637;29;1377;-80
2021/08/25 07:51:29;;;;;;;;;;;;;;;22.68;29.26;97768.41;4930027;29;969;-82
2021/08/25 07:53:54;;;;;;;;;;;;;;;22.57;29.85;97774.47;4946260;29;989;-82
2021/08/25 07:56:20;;;;;;;;;;;;;;;22.45;29.68;97777.34;4946798;29;647;-81
2021/08/25 07:58:45;;;;;;;;;;;;;;;22.41;29.99;97771.78;4930924;29;743;-82
2021/08/25 08:01:11;;;;;;;;;;;;;;;22.65;29.39;97775.03;4931447;29;724;-82
2021/08/25 08:03:37;;;;;;;;;;;;;;;22.68;29.38;97773.31;4946501;29;833;-81
2021/08/25 08:06:02;;;;;;;;;;;;;;;22.71;29.36;97761.84;4946942;29;943;-82
2021/08/25 08:08:27;;;;;;;;;;;;;;;22.67;29.18;97755.50;4930851;29;1906;-82
2021/08/25 08:10:53;;;;;;;;;;;;;;;22.67;29.08;97761.16;4946787;29;893;-82
2021/08/25 08:13:19;;;;;;;;;;;;;;;22.61;29.51;97763.00;4945747;29;1037;-82
2021/08/25 08:15:45;;;;;;;;;;;;;;;22.71;29.06;97761.84;4931234;29;664;-82
2021/08/25 08:18:15;;;;;;;;;;;;;;;22.88;28.85;97766.13;4914250;29;801;-81
2021/08/25 08:20:40;;;;;;;;;;;;;;;22.58;29.55;97758.22;4930638;29;1015;-82
2021/08/25 08:23:06;;;;;;;;;;;;;;;22.62;29.41;97764.59;4929638;29;966;-82
2021/08/25 08:25:32;;;;;;;;;;;;;;;22.62;29.35;97764.59;4929746;29;903;-81
2021/08/25 08:27:57;;;;;;;;;;;;;;;22.59;29.43;97759.84;4913851;29;1907;-81
2021/08/25 08:30:22;;;;;;;;;;;;;;;22.52;29.61;97765.75;4929898;29;656;-81
2021/08/25 08:32:48;;;;;;;;;;;;;;;22.54;29.78;97760.41;4929640;29;636;-82
2021/08/25 08:35:14;;;;;;;;;;;;;;;22.58;29.41;97755.41;4913451;29;1065;-80
2021/08/25 08:37:39;;;;;;;;;;;;;;;22.58;29.67;97761.84;4929474;29;931;-81
2021/08/25 08:40:05;;;;;;;;;;;;;;;22.57;29.64;97760.28;4929451;29;868;-81
2021/08/25 08:42:31;;;;;;;;;;;;;;;22.62;29.48;97753.25;4913633;29;921;-81
2021/08/25 08:44:57;;;;;;;;;;;;;;;22.80;29.36;97755.47;4913263;29;717;-81
2021/08/25 08:47:23;;;;;;;;;;;;;;;22.79;29.21;97753.84;4929846;29;1969;-82
2021/08/25 08:49:48;;;;;;;;;;;;;;;22.75;29.19;97761.72;4928905;29;1032;-81
2021/08/25 08:52:17;;;;;;;;;;;;;;;22.70;29.60;97759.47;4929840;29;924;-81
2021/08/25 08:54:43;;;;;;;;;;;;;;;22.85;28.99;97743.53;4928676;29;767;-81
2021/08/25 08:57:08;;;;;;;;;;;;;;;22.83;29.13;97752.47;4930253;29;959;-81
2021/08/25 08:59:34;;;;;;;;;;;;;;;22.74;29.29;97749.59;4928641;29;1279;-81
2021/08/25 09:01:59;;;;;;;;;;;;;;;22.85;29.07;97744.31;4929284;29;971;-80
2021/08/25 09:04:29;;;;;;;;;;;;;;;22.54;29.65;97740.56;4912944;29;973;-81
2021/08/25 09:06:55;;;;;;;;;;;;;;;22.69;29.77;97755.84;4913073;29;1976;-82
2021/08/25 09:09:21;;;;;;;;;;;;;;;22.71;29.58;97744.03;4929054;29;858;-81
2021/08/25 09:11:50;;;;;;;;;;;;;;;22.48;29.76;97736.72;4913593;29;1186;-81
2021/08/25 09:14:15;;;;;;;;;;;;;;;22.58;29.82;97747.69;4917565;29;994;-82
2021/08/25 09:16:41;;;;;;;;;;;;;;;22.76;29.49;97730.06;4930016;29;861;-82
2021/08/25 09:19:06;;;;;;;;;;;;;;;22.86;29.28;97737.41;4929092;29;900;-82
2021/08/25 09:21:32;;;;;;;;;;;;;;;22.74;29.39;97735.41;4930009;29;993;-81
2021/08/25 09:24:01;;;;;;;;;;;;;;;22.69;29.59;97730.31;4945007;29;700;-82
2021/08/25 09:26:30;;;;;;;;;;;;;;;22.81;29.13;97737.97;4945065;29;779;-82
2021/08/25 09:28:56;;;;;;;;;;;;;;;22.77;29.54;97730.84;4929720;29;1978;-82
2021/08/25 09:31:21;;;;;;;;;;;;;;;22.74;29.38;97735.41;4944683;29;1081;-81
2021/08/25 09:33:47;;;;;;;;;;;;;;;22.73;29.63;97725.28;4928215;29;983;-80
2021/08/25 09:36:13;;;;;;;;;;;;;;;22.67;29.51;97721.47;4929685;29;877;-82
2021/08/25 09:38:39;;;;;;;;;;;;;;;22.70;29.41;97720.56;4928307;29;1442;-82
2021/08/25 09:41:05;;;;;;;;;;;;;;;22.81;29.08;97720.16;4944758;29;672;-81
2021/08/25 09:43:41;;;;;;;;;;;;;;;22.83;29.38;97721.28;4944163;29;676;-81
2021/08/25 09:46:08;;;;;;;;;;;;;;;22.96;28.85;97721.28;4944629;29;996;-82
2021/08/25 09:48:34;;;;;;;;;;;;;;;22.69;29.44;97716.13;4943230;29;1950;-82
2021/08/25 09:50:59;;;;;;;;;;;;;;;22.78;29.36;97718.25;4944642;29;830;-81
2021/08/25 09:53:25;;;;;;;;;;;;;;;22.87;29.28;97713.44;4928183;29;843;-81
2021/08/25 09:55:50;;;;;;;;;;;;;;;22.92;29.04;97702.78;4944680;29;794;-82
2021/08/25 09:58:15;;;;;;;;;;;;;;;22.72;29.31;97715.19;4943255;29;803;-81
2021/08/25 10:00:41;;;;;;;;;;;;;;;22.71;29.38;97705.13;4944447;29;733;-82
2021/08/25 10:03:06;;;;;;;;;;;;;;;22.73;29.54;97705.44;4943438;29;727;-81
2021/08/25 10:05:32;;;;;;;;;;;;;;;22.81;29.34;97709.63;4943647;29;1026;-82
2021/08/25 10:07:57;;;;;;;;;;;;;;;22.86;29.35;97711.06;4943149;29;1969;-81
2021/08/25 10:10:23;;;;;;;;;;;;;;;22.90;29.30;97711.78;4943937;29;1003;-82
2021/08/25 10:12:49;;;;;;;;;;;;;;;22.84;29.47;97700.16;4948386;29;1395;-81
2021/08/25 10:15:26;;;;;;;;;;;;;;;22.75;29.46;97700.13;4982284;28;1043;-82
2021/08/25 10:17:52;;;;;;;;;;;;;;;22.69;29.39;97701.97;4966740;29;689;-81
2021/08/25 10:20:24;;;;;;;;;;;;;;;22.82;29.52;97704.72;4966158;29;941;-81
2021/08/25 10:22:49;;;;;;;;;;;;;;;22.72;29.54;97695.34;4966433;28;851;-81
2021/08/25 10:25:18;;;;;;;;;;;;;;;22.77;29.63;97697.59;4981650;28;914;-81
2021/08/25 10:28:02;;;;;;;;;;;;;;;22.78;29.55;97692.72;4981456;28;1911;-81
2021/08/25 10:30:28;;;;;;;;;;;;;;;22.85;29.54;97692.47;4966559;29;711;-82
2021/08/25 10:32:53;;;;;;;;;;;;;;;22.94;29.33;97697.44;4981383;28;715;-81
2021/08/25 10:35:19;;;;;;;;;;;;;;;22.73;29.32;97694.09;4965619;29;934;-81
2021/08/25 10:37:46;;;;;;;;;;;;;;;22.68;29.82;97694.69;4965527;29;869;-80
2021/08/25 10:40:11;;;;;;;;;;;;;;;22.59;29.67;97686.13;4964764;29;928;-81
2021/08/25 10:42:43;;;;;;;;;;;;;;;22.63;29.94;97686.75;4981242;28;639;-81
2021/08/25 10:45:09;;;;;;;;;;;;;;;22.88;29.50;97689.50;4980764;28;842;-81
2021/08/25 10:47:56;;;;;;;;;;;;;;;22.91;29.29;97687.81;4981095;28;1906;-81
2021/08/25 10:50:21;;;;;;;;;;;;;;;22.85;29.46;97692.47;4964979;28;1127;-81
2021/08/25 10:52:46;;;;;;;;;;;;;;;22.88;29.20;97691.56;4980272;28;976;-81
2021/08/25 10:55:12;;;;;;;;;;;;;;;22.75;29.68;97696.50;4964749;29;695;-81
2021/08/25 10:57:37;;;;;;;;;;;;;;;22.83;29.18;97695.75;4965784;29;711;-81
2021/08/25 11:00:06;;;;;;;;;;;;;;;22.85;29.37;97690.44;4980423;28;1364;-81
2021/08/25 11:02:41;;;;;;;;;;;;;;;22.79;29.48;97695.06;4964223;29;1255;-81
2021/08/25 11:05:06;;;;;;;;;;;;;;;22.81;29.36;97697.47;4980021;28;870;-80
2021/08/25 11:07:52;;;;;;;;;;;;;;;22.79;29.62;97689.41;4964487;29;1907;-81
2021/08/25 11:10:22;;;;;;;;;;;;;;;22.71;29.60;97693.78;4966154;28;735;-81
2021/08/25 11:12:47;;;;;;;;;;;;;;;22.83;29.48;97690.06;4980410;28;651;-81
2021/08/25 11:15:13;;;;;;;;;;;;;;;22.76;29.70;97692.41;4964165;29;1133;-81
2021/08/25 11:17:39;;;;;;;;;;;;;;;22.74;29.51;97680.69;4966375;28;906;-79
2021/08/25 11:20:05;;;;;;;;;;;;;;;22.80;29.36;97685.34;4983637;28;839;-81
2021/08/25 11:22:32;;;;;;;;;;;;;;;22.76;29.54;97683.88;4984358;28;851;-79
2021/08/25 11:24:59;;;;;;;;;;;;;;;22.88;29.26;97686.69;4967886;29;1255;-80
2021/08/25 11:27:25;;;;;;;;;;;;;;;22.86;29.29;97683.50;4967567;29;1930;-81
2021/08/25 11:30:09;;;;;;;;;;;;;;;22.74;29.45;97692.03;4967946;29;780;-80
2021/08/25 11:32:35;;;;;;;;;;;;;;;22.62;29.53;97685.19;4968343;29;879;-80
2021/08/25 11:35:01;;;;;;;;;;;;;;;22.80;29.56;97685.34;4982764;28;1133;-79
2021/08/25 11:37:27;;;;;;;;;;;;;;;22.74;29.57;97692.03;4951950;29;848;-81
2021/08/25 11:40:01;;;;;;;;;;;;;;;23.01;28.97;97685.84;4967528;29;1284;-79
2021/08/25 11:42:27;;;;;;;;;;;;;;;22.85;29.21;97681.91;4969002;28;719;-82
2021/08/25 11:44:54;;;;;;;;;;;;;;;22.82;29.62;97682.81;4967669;29;882;-79
2021/08/25 11:47:20;;;;;;;;;;;;;;;22.86;29.42;97672.16;4983225;28;1985;-81
2021/08/25 11:49:47;;;;;;;;;;;;;;;22.82;29.48;97662.19;4966915;29;945;-81
2021/08/25 11:52:13;;;;;;;;;;;;;;;22.90;29.19;97672.06;4983755;28;882;-81
2021/08/25 11:54:38;;;;;;;;;;;;;;;22.79;29.51;97660.25;4983042;28;916;-81
2021/08/25 11:57:04;;;;;;;;;;;;;;;22.82;29.35;97656.50;4983843;28;663;-81
2021/08/25 11:59:31;;;;;;;;;;;;;;;22.87;29.13;97650.25;4966898;29;886;-80
2021/08/25 12:02:08;;;;;;;;;;;;;;;22.77;29.48;97645.75;4966657;29;1185;-80
2021/08/25 12:04:34;;;;;;;;;;;;;;;22.79;29.77;97644.03;4967432;28;914;-81
2021/08/25 12:06:59;;;;;;;;;;;;;;;22.70;29.39;97629.81;4982983;28;1977;-81
2021/08/25 12:09:31;;;;;;;;;;;;;;;22.73;29.69;97634.53;4967788;29;734;-81
2021/08/25 12:11:56;;;;;;;;;;;;;;;22.77;29.45;97629.53;4968421;28;659;-81
2021/08/25 12:14:22;;;;;;;;;;;;;;;22.78;29.47;97625.44;4982841;28;1027;-81
2021/08/25 12:17:06;;;;;;;;;;;;;;;22.74;29.59;97630.47;4968265;28;696;-80
2021/08/25 12:19:34;;;;;;;;;;;;;;;22.92;29.42;97634.69;4982951;28;1026;-81
2021/08/25 12:22:19;;;;;;;;;;;;;;;22.83;29.41;97627.66;4967541;29;872;-81
2021/08/25 12:24:44;;;;;;;;;;;;;;;22.71;29.52;97631.38;4966727;29;636;-80
2021/08/25 12:27:10;;;;;;;;;;;;;;;22.91;29.21;97627.44;4983797;28;1898;-81
2021/08/25 12:29:35;;;;;;;;;;;;;;;22.87;29.44;97628.34;4966989;28;703;-81
2021/08/25 12:32:02;;;;;;;;;;;;;;;22.86;29.14;97626.75;4952006;29;749;-81
2021/08/25 12:34:28;;;;;;;;;;;;;;;22.90;29.17;97626.66;4982398;28;870;-81
2021/08/25 12:36:55;;;;;;;;;;;;;;;22.81;29.64;97629.41;4967788;29;1314;-81
2021/08/25 12:39:22;;;;;;;;;;;;;;;22.74;29.62;97619.13;4966750;29;980;-81
2021/08/25 12:41:48;;;;;;;;;;;;;;;22.87;29.42;97621.88;4968112;28;745;-81
2021/08/25 12:44:14;;;;;;;;;;;;;;;22.84;29.22;97620.72;4983000;28;616;-81
2021/08/25 12:46:52;;;;;;;;;;;;;;;22.79;29.65;97615.66;4968149;28;894;-82
2021/08/25 12:49:17;;;;;;;;;;;;;;;22.86;29.08;97606.91;4967583;28;808;-81
2021/08/25 12:51:43;;;;;;;;;;;;;;;22.90;29.39;97625.84;4967670;29;1322;-79
2021/08/25 12:54:08;;;;;;;;;;;;;;;22.86;29.48;97625.97;4967976;28;703;-81
2021/08/25 12:56:34;;;;;;;;;;;;;;;22.88;29.32;97617.81;4983859;28;647;-82
2021/08/25 12:58:59;;;;;;;;;;;;;;;22.96;29.10;97621.97;4967541;28;703;-81
2021/08/25 13:01:25;;;;;;;;;;;;;;;22.83;29.32;97619.16;4966717;29;1181;-81